Time;durP1;ratioP1;P1;durP2;ratioP2;P2;SDS_P1;SDS_P2;PMS_P1;PMS_P2;Temp;Humidity;BMP_temperature;BMP_pressure;BME280_temperature;BME280_humidity;BME280_pressure;Samples;Min_cycle;Max_cycle;Signal;HPM_P1;HPM_P2
2021/09/29 00:02:10;;;;;;;2.03;0.80;;;;;;;;;;5068688;28;20442;-60
2021/09/29 00:04:36;;;;;;;0.75;0.55;;;;;;;;;;5068442;28;20032;-60
2021/09/29 00:07:03;;;;;;;1.02;0.80;;;;;;;;;;5068970;28;20392;-60
2021/09/29 00:09:29;;;;;;;1.13;0.80;;;;;;;;;;5067937;28;20056;-60
2021/09/29 00:11:55;;;;;;;1.30;0.80;;;;;;;;;;5073482;28;20028;-60
2021/09/29 00:14:21;;;;;;;0.73;0.63;;;;;;;;;;5089695;28;20032;-60
2021/09/29 00:16:47;;;;;;;1.85;0.90;;;;;;;;;;5089248;28;20055;-60
2021/09/29 00:19:13;;;;;;;0.85;0.60;;;;;;;;;;5086758;28;20046;-58
2021/09/29 00:21:40;;;;;;;0.60;0.50;;;;;;;;;;5068494;28;20400;-58
2021/09/29 00:24:06;;;;;;;0.80;0.60;;;;;;;;;;5068081;28;20040;-58
2021/09/29 00:26:32;;;;;;;1.48;0.70;;;;;;;;;;5068616;28;20024;-58
2021/09/29 00:28:58;;;;;;;0.60;0.57;;;;;;;;;;5068788;28;20415;-58
2021/09/29 00:31:39;;;;;;;0.70;0.60;;;;;;;;;;5087305;28;20399;-58
2021/09/29 00:36:39;;;;;;;1.42;0.57;;;;;;;;;;5088287;28;20502;-58
2021/09/29 00:39:06;;;;;;;0.60;0.60;;;;;;;;;;5086225;28;20028;-57
2021/09/29 00:41:32;;;;;;;1.88;0.70;;;;;;;;;;5088230;28;20024;-58
2021/09/29 00:43:58;;;;;;;0.50;0.50;;;;;;;;;;5088417;28;20035;-58
2021/09/29 00:46:24;;;;;;;1.17;1.00;;;;;;;;;;5089024;28;20028;-58
2021/09/29 00:48:51;;;;;;;0.95;0.68;;;;;;;;;;5085888;28;20814;-58
2021/09/29 00:51:17;;;;;;;0.65;0.57;;;;;;;;;;5069718;28;20046;-58
2021/09/29 00:53:45;;;;;;;1.05;0.60;;;;;;;;;;5087995;28;20024;-58
2021/09/29 00:56:12;;;;;;;1.02;0.60;;;;;;;;;;5088450;28;20115;-58
2021/09/29 00:58:38;;;;;;;2.03;1.10;;;;;;;;;;5076170;28;20102;-58
2021/09/29 01:01:04;;;;;;;0.80;0.80;;;;;;;;;;5067221;28;20029;-58
2021/09/29 01:03:31;;;;;;;1.02;0.82;;;;;;;;;;5066783;28;20076;-58
2021/09/29 01:06:01;;;;;;;1.13;0.73;;;;;;;;;;5067893;28;20025;-58
2021/09/29 01:08:33;;;;;;;0.95;0.80;;;;;;;;;;5067644;28;20484;-58
2021/09/29 01:11:17;;;;;;;0.95;0.80;;;;;;;;;;5066867;28;20033;-58
2021/09/29 01:13:43;;;;;;;;;;;;;;;;;;5067702;28;20029;-58
2021/09/29 01:16:11;;;;;;;0.85;0.80;;;;;;;;;;5067592;28;19950;-58
2021/09/29 01:18:41;;;;;;;1.08;0.80;;;;;;;;;;5076503;28;20505;-58
2021/09/29 01:21:15;;;;;;;1.00;0.65;;;;;;;;;;5051837;28;20553;-58
2021/09/29 01:23:41;;;;;;;0.80;0.65;;;;;;;;;;5067157;28;20459;-58
2021/09/29 01:26:07;;;;;;;1.50;0.60;;;;;;;;;;5067685;28;20430;-58
2021/09/29 01:28:35;;;;;;;0.77;0.70;;;;;;;;;;5067174;28;20383;-58
2021/09/29 01:31:02;;;;;;;0.93;0.70;;;;;;;;;;5082686;28;20039;-58
2021/09/29 01:33:29;;;;;;;0.95;0.60;;;;;;;;;;5080539;28;20629;-58
2021/09/29 01:35:55;;;;;;;1.33;0.50;;;;;;;;;;5066532;28;20025;-58
2021/09/29 01:38:22;;;;;;;0.60;0.50;;;;;;;;;;5067925;28;20033;-58
2021/09/29 01:40:48;;;;;;;1.25;0.60;;;;;;;;;;5066769;28;20497;-58
2021/09/29 01:43:14;;;;;;;0.82;0.47;;;;;;;;;;5066800;28;20114;-58
2021/09/29 01:45:44;;;;;;;0.40;0.38;;;;;;;;;;5081223;28;20052;-58
2021/09/29 01:48:10;;;;;;;0.35;0.35;;;;;;;;;;5087293;28;20550;-58
2021/09/29 01:50:37;;;;;;;0.50;0.50;;;;;;;;;;5085677;28;20415;-58
2021/09/29 01:53:03;;;;;;;0.57;0.40;;;;;;;;;;5087292;28;20039;-58
2021/09/29 01:55:30;;;;;;;0.40;0.40;;;;;;;;;;5087039;28;20027;-58
2021/09/29 01:57:57;;;;;;;1.25;0.60;;;;;;;;;;5087330;28;20109;-58
2021/09/29 02:00:23;;;;;;;0.50;0.50;;;;;;;;;;5079674;28;20028;-58
2021/09/29 02:02:49;;;;;;;1.60;0.47;;;;;;;;;;5066120;28;20138;-58
2021/09/29 02:05:25;;;;;;;0.90;0.50;;;;;;;;;;5066362;28;20056;-58
2021/09/29 02:07:52;;;;;;;2.28;0.60;;;;;;;;;;5067502;28;20105;-58
2021/09/29 02:10:18;;;;;;;0.32;0.32;;;;;;;;;;5066352;28;20388;-58
2021/09/29 02:12:44;;;;;;;0.77;0.50;;;;;;;;;;5066380;28;20483;-58
2021/09/29 02:15:10;;;;;;;0.73;0.52;;;;;;;;;;5073702;28;20026;-58
2021/09/29 02:17:36;;;;;;;0.82;0.52;;;;;;;;;;5086532;28;20816;-58
2021/09/29 02:20:02;;;;;;;0.68;0.47;;;;;;;;;;5084988;28;20433;-58
2021/09/29 02:22:28;;;;;;;0.65;0.60;;;;;;;;;;5066196;28;20031;-58
2021/09/29 02:24:54;;;;;;;1.85;0.60;;;;;;;;;;5067038;28;20407;-58
2021/09/29 02:27:21;;;;;;;0.60;0.60;;;;;;;;;;5067396;28;20096;-58
2021/09/29 02:29:47;;;;;;;0.60;0.50;;;;;;;;;;5066433;28;20032;-58
2021/09/29 02:32:13;;;;;;;1.00;0.90;;;;;;;;;;5065898;28;20173;-58
2021/09/29 02:34:40;;;;;;;0.82;0.50;;;;;;;;;;5066138;28;20530;-58
2021/09/29 02:37:06;;;;;;;0.60;0.50;;;;;;;;;;5066435;28;20047;-57
2021/09/29 02:39:32;;;;;;;0.70;0.70;;;;;;;;;;5066130;28;20063;-58
2021/09/29 02:41:58;;;;;;;0.85;0.50;;;;;;;;;;5065911;28;20040;-57
2021/09/29 02:44:24;;;;;;;0.80;0.50;;;;;;;;;;5048424;28;20508;-58
2021/09/29 02:46:50;;;;;;;0.88;0.40;;;;;;;;;;5065856;28;20067;-58
2021/09/29 02:49:16;;;;;;;0.77;0.60;;;;;;;;;;5070420;28;20088;-58
2021/09/29 02:51:42;;;;;;;0.50;0.50;;;;;;;;;;5069416;28;20036;-58
2021/09/29 02:54:08;;;;;;;1.27;0.60;;;;;;;;;;5070213;28;20422;-58
2021/09/29 02:56:34;;;;;;;0.60;0.50;;;;;;;;;;5070248;28;20500;-58
2021/09/29 02:59:01;;;;;;;0.50;0.50;;;;;;;;;;5070279;28;20043;-57
2021/09/29 03:01:27;;;;;;;0.57;0.50;;;;;;;;;;5085201;28;20051;-58
2021/09/29 03:03:53;;;;;;;0.63;0.52;;;;;;;;;;5090521;28;20024;-58
2021/09/29 03:06:19;;;;;;;0.50;0.50;;;;;;;;;;5090133;28;20126;-58
2021/09/29 03:08:45;;;;;;;0.75;0.63;;;;;;;;;;5089998;28;20027;-58
2021/09/29 03:11:11;;;;;;;1.20;0.60;;;;;;;;;;5057839;28;20580;-58
2021/09/29 03:13:37;;;;;;;0.52;0.50;;;;;;;;;;5069845;28;20047;-58
2021/09/29 03:16:04;;;;;;;1.20;0.70;;;;;;;;;;5084681;28;20073;-58
2021/09/29 03:18:30;;;;;;;1.15;0.57;;;;;;;;;;5089913;28;20668;-58
2021/09/29 03:20:56;;;;;;;1.30;0.52;;;;;;;;;;5089143;28;20028;-58
2021/09/29 03:23:22;;;;;;;0.43;0.43;;;;;;;;;;5090806;28;20576;-58
2021/09/29 03:25:48;;;;;;;1.08;0.70;;;;;;;;;;5090313;28;20118;-58
2021/09/29 03:28:14;;;;;;;0.77;0.50;;;;;;;;;;5090176;28;20020;-58
2021/09/29 03:30:40;;;;;;;1.80;0.63;;;;;;;;;;5080144;28;20451;-58
2021/09/29 03:33:07;;;;;;;1.77;0.70;;;;;;;;;;5069711;28;20734;-58
2021/09/29 03:35:36;;;;;;;0.50;0.50;;;;;;;;;;5069579;28;20029;-58
2021/09/29 03:38:02;;;;;;;2.05;0.60;;;;;;;;;;5069692;28;20116;-58
2021/09/29 03:40:29;;;;;;;1.98;0.60;;;;;;;;;;5068558;28;20035;-57
2021/09/29 03:42:55;;;;;;;1.08;0.70;;;;;;;;;;5051954;28;20039;-58
2021/09/29 03:45:21;;;;;;;0.88;0.70;;;;;;;;;;5077712;28;20027;-58
2021/09/29 03:47:47;;;;;;;0.63;0.63;;;;;;;;;;5070970;28;20036;-58
2021/09/29 03:50:13;;;;;;;0.77;0.75;;;;;;;;;;5081800;28;20036;-58
2021/09/29 03:52:40;;;;;;;0.47;0.47;;;;;;;;;;5068256;28;20100;-58
2021/09/29 03:55:06;;;;;;;1.63;0.68;;;;;;;;;;5069088;28;20021;-58
2021/09/29 03:57:34;;;;;;;1.10;0.60;;;;;;;;;;5069080;28;20024;-58
2021/09/29 04:00:00;;;;;;;2.05;0.40;;;;;;;;;;5075434;28;20524;-60
2021/09/29 04:02:27;;;;;;;0.43;0.43;;;;;;;;;;5073351;28;20040;-59
2021/09/29 04:04:53;;;;;;;0.65;0.52;;;;;;;;;;5075564;28;20028;-60
2021/09/29 04:07:19;;;;;;;1.75;0.60;;;;;;;;;;5089361;28;20024;-60
2021/09/29 04:09:46;;;;;;;0.68;0.57;;;;;;;;;;5088081;28;20023;-59
2021/09/29 04:12:13;;;;;;;2.83;0.70;;;;;;;;;;5089250;28;20035;-60
2021/09/29 04:14:40;;;;;;;0.77;0.60;;;;;;;;;;5086424;28;20651;-60
2021/09/29 04:17:06;;;;;;;0.98;0.65;;;;;;;;;;5068848;28;20039;-59
2021/09/29 04:19:32;;;;;;;0.52;0.52;;;;;;;;;;5087298;28;20024;-59
2021/09/29 04:21:58;;;;;;;1.23;0.65;;;;;;;;;;5089390;28;20098;-59
2021/09/29 04:24:25;;;;;;;0.85;0.80;;;;;;;;;;5089303;28;20031;-59
2021/09/29 04:26:51;;;;;;;0.70;0.50;;;;;;;;;;5068911;28;20032;-59
2021/09/29 04:29:17;;;;;;;0.98;0.70;;;;;;;;;;5068769;28;20047;-60
2021/09/29 04:31:43;;;;;;;0.85;0.60;;;;;;;;;;5068039;28;20024;-60
2021/09/29 04:34:09;;;;;;;0.60;0.40;;;;;;;;;;5068761;28;20089;-60
2021/09/29 04:36:35;;;;;;;0.70;0.70;;;;;;;;;;5067963;28;20021;-60
2021/09/29 04:39:01;;;;;;;0.70;0.60;;;;;;;;;;5068483;28;20036;-60
2021/09/29 04:41:27;;;;;;;0.52;0.52;;;;;;;;;;5067621;28;20486;-60
2021/09/29 04:43:53;;;;;;;0.68;0.50;;;;;;;;;;5069190;28;20075;-59
2021/09/29 04:46:20;;;;;;;0.82;0.50;;;;;;;;;;5063411;28;20634;-59
2021/09/29 04:48:47;;;;;;;0.47;0.47;;;;;;;;;;5088346;28;20032;-59
2021/09/29 04:51:13;;;;;;;0.55;0.52;;;;;;;;;;5088634;28;20523;-59
2021/09/29 04:53:39;;;;;;;1.75;0.90;;;;;;;;;;5088033;28;20455;-59
2021/09/29 04:56:05;;;;;;;1.50;0.73;;;;;;;;;;5075170;28;20494;-59
2021/09/29 04:58:31;;;;;;;0.93;0.70;;;;;;;;;;5067773;28;20051;-59
2021/09/29 05:00:57;;;;;;;0.73;0.65;;;;;;;;;;5067592;28;20105;-59
2021/09/29 05:03:23;;;;;;;0.65;0.55;;;;;;;;;;5069825;28;20481;-60
2021/09/29 05:05:50;;;;;;;0.40;0.40;;;;;;;;;;5077575;28;20025;-59
2021/09/29 05:08:24;;;;;;;0.77;0.70;;;;;;;;;;5050216;28;20388;-59
2021/09/29 05:10:55;;;;;;;1.65;0.70;;;;;;;;;;5068583;28;20547;-59
2021/09/29 05:13:25;;;;;;;0.40;0.40;;;;;;;;;;5068351;28;20024;-59
2021/09/29 05:15:52;;;;;;;1.08;0.75;;;;;;;;;;5077434;28;20032;-59
2021/09/29 05:18:19;;;;;;;0.82;0.60;;;;;;;;;;5054662;28;20036;-60
2021/09/29 05:20:45;;;;;;;0.98;0.50;;;;;;;;;;5067423;28;20047;-59
2021/09/29 05:23:11;;;;;;;1.08;0.70;;;;;;;;;;5067497;28;20025;-60
2021/09/29 05:25:37;;;;;;;1.77;0.80;;;;;;;;;;5077970;28;20039;-60
2021/09/29 05:28:06;;;;;;;1.85;0.70;;;;;;;;;;5087706;28;20433;-60
2021/09/29 05:30:32;;;;;;;1.05;0.75;;;;;;;;;;5079549;28;20039;-60
2021/09/29 05:32:58;;;;;;;0.75;0.60;;;;;;;;;;5064537;28;20495;-60
2021/09/29 05:35:24;;;;;;;1.95;0.77;;;;;;;;;;5056893;28;20020;-60
2021/09/29 05:37:50;;;;;;;1.00;0.70;;;;;;;;;;5085398;28;20604;-60
2021/09/29 05:40:16;;;;;;;1.02;0.80;;;;;;;;;;5079518;28;20064;-60
2021/09/29 05:42:42;;;;;;;0.80;0.70;;;;;;;;;;5073249;28;20615;-60
2021/09/29 05:45:09;;;;;;;0.90;0.80;;;;;;;;;;5066576;28;20020;-60
2021/09/29 05:47:35;;;;;;;2.28;1.23;;;;;;;;;;5070769;28;20031;-59
2021/09/29 05:50:01;;;;;;;0.95;0.88;;;;;;;;;;5075048;28;20024;-58
2021/09/29 05:52:27;;;;;;;1.25;0.88;;;;;;;;;;5062042;28;20622;-58
2021/09/29 05:54:53;;;;;;;1.33;0.80;;;;;;;;;;5075690;28;20392;-58
2021/09/29 05:57:19;;;;;;;1.60;1.00;;;;;;;;;;5070088;28;20084;-59
2021/09/29 05:59:46;;;;;;;1.20;0.98;;;;;;;;;;5082737;28;20695;-59
2021/09/29 06:02:12;;;;;;;1.20;0.80;;;;;;;;;;5071264;28;20438;-59
2021/09/29 06:04:41;;;;;;;1.27;0.68;;;;;;;;;;5066504;28;20024;-59
2021/09/29 06:07:10;;;;;;;1.83;0.90;;;;;;;;;;5076446;28;20039;-59
2021/09/29 06:09:39;;;;;;;1.25;0.80;;;;;;;;;;5084648;28;20861;-59
2021/09/29 06:12:05;;;;;;;1.88;0.77;;;;;;;;;;5086977;28;20479;-59
2021/09/29 06:14:32;;;;;;;0.80;0.80;;;;;;;;;;5079326;28;20024;-58
2021/09/29 06:17:00;;;;;;;1.40;0.70;;;;;;;;;;5066809;28;20036;-59
2021/09/29 06:19:27;;;;;;;1.13;0.80;;;;;;;;;;5070596;28;20031;-58
2021/09/29 06:21:53;;;;;;;1.98;0.90;;;;;;;;;;5081451;28;20055;-59
2021/09/29 06:24:19;;;;;;;1.65;0.90;;;;;;;;;;5076422;28;20024;-58
2021/09/29 06:26:45;;;;;;;0.93;0.80;;;;;;;;;;5085805;28;20050;-57
2021/09/29 06:29:11;;;;;;;1.35;1.00;;;;;;;;;;5071716;28;20727;-58
2021/09/29 06:31:37;;;;;;;1.13;0.63;;;;;;;;;;5078624;28;20110;-58
2021/09/29 06:34:03;;;;;;;0.95;0.63;;;;;;;;;;5065255;28;20031;-58
2021/09/29 06:36:30;;;;;;;1.00;0.80;;;;;;;;;;5071024;28;20032;-58
2021/09/29 06:38:56;;;;;;;1.27;0.80;;;;;;;;;;5072262;28;20113;-58
2021/09/29 06:41:22;;;;;;;1.33;0.68;;;;;;;;;;5071591;28;20561;-58
2021/09/29 06:43:48;;;;;;;0.60;0.60;;;;;;;;;;5064594;28;20035;-58
2021/09/29 06:46:15;;;;;;;1.23;0.60;;;;;;;;;;5061663;28;20032;-59
2021/09/29 06:48:42;;;;;;;0.82;0.57;;;;;;;;;;5069173;28;20393;-58
2021/09/29 06:51:08;;;;;;;0.50;0.45;;;;;;;;;;5073378;28;20422;-58
2021/09/29 06:53:34;;;;;;;0.63;0.60;;;;;;;;;;5065524;28;20071;-58
2021/09/29 06:56:05;;;;;;;0.45;0.45;;;;;;;;;;5065528;28;20020;-59
2021/09/29 06:58:31;;;;;;;0.93;0.60;;;;;;;;;;5065443;28;20051;-58
2021/09/29 07:00:57;;;;;;;1.42;0.70;;;;;;;;;;5066868;28;20032;-59
2021/09/29 07:03:24;;;;;;;1.58;0.68;;;;;;;;;;5072565;28;20056;-59
2021/09/29 07:05:50;;;;;;;1.23;0.63;;;;;;;;;;5081165;28;20021;-59
2021/09/29 07:08:16;;;;;;;0.40;0.40;;;;;;;;;;5066626;28;20041;-59
2021/09/29 07:10:42;;;;;;;0.57;0.45;;;;;;;;;;5065482;28;20028;-59
2021/09/29 07:13:10;;;;;;;0.55;0.52;;;;;;;;;;5066150;28;20095;-58
2021/09/29 07:15:36;;;;;;;0.55;0.50;;;;;;;;;;5065519;28;20111;-58
2021/09/29 07:18:04;;;;;;;1.00;0.82;;;;;;;;;;5066160;28;20113;-58
2021/09/29 07:20:30;;;;;;;1.05;0.77;;;;;;;;;;5079146;28;20028;-58
2021/09/29 07:22:57;;;;;;;1.25;0.75;;;;;;;;;;5079373;28;20145;-58
2021/09/29 07:25:23;;;;;;;1.05;0.70;;;;;;;;;;5063194;28;20029;-58
2021/09/29 07:27:50;;;;;;;1.17;0.70;;;;;;;;;;5066655;28;20032;-58
2021/09/29 07:30:16;;;;;;;2.17;1.00;;;;;;;;;;5066434;28;20148;-58
2021/09/29 07:32:45;;;;;;;1.00;0.80;;;;;;;;;;5066432;28;20031;-58
2021/09/29 07:35:12;;;;;;;1.35;0.80;;;;;;;;;;5066173;28;20025;-58
2021/09/29 07:37:38;;;;;;;0.65;0.60;;;;;;;;;;5069034;28;20028;-58
2021/09/29 07:40:04;;;;;;;0.60;0.60;;;;;;;;;;5066560;28;20036;-58
2021/09/29 07:42:30;;;;;;;0.77;0.60;;;;;;;;;;5060153;28;20042;-58
2021/09/29 07:44:56;;;;;;;0.82;0.68;;;;;;;;;;5065132;28;20103;-58
2021/09/29 07:47:22;;;;;;;0.82;0.70;;;;;;;;;;5070638;28;20439;-58
2021/09/29 07:49:48;;;;;;;1.10;0.70;;;;;;;;;;5070508;28;20021;-59
2021/09/29 07:52:14;;;;;;;0.57;0.55;;;;;;;;;;5068944;28;20036;-59
2021/09/29 07:54:40;;;;;;;0.60;0.60;;;;;;;;;;5069527;28;20411;-58
2021/09/29 07:57:07;;;;;;;0.50;0.50;;;;;;;;;;5069775;28;20029;-58
2021/09/29 07:59:33;;;;;;;1.25;0.50;;;;;;;;;;5068942;28;20032;-58
2021/09/29 08:01:59;;;;;;;1.75;0.88;;;;;;;;;;5067888;28;20036;-58
2021/09/29 08:04:25;;;;;;;0.60;0.60;;;;;;;;;;5069183;28;20028;-58
2021/09/29 08:06:52;;;;;;;0.47;0.47;;;;;;;;;;5069410;28;20048;-58
2021/09/29 08:09:18;;;;;;;0.50;0.50;;;;;;;;;;5068237;28;20651;-59
2021/09/29 08:11:45;;;;;;;0.80;0.50;;;;;;;;;;5064496;28;20056;-58
2021/09/29 08:14:11;;;;;;;0.60;0.45;;;;;;;;;;5066516;28;20027;-58
2021/09/29 08:16:37;;;;;;;0.45;0.45;;;;;;;;;;5057156;28;20037;-58
2021/09/29 08:19:03;;;;;;;0.73;0.47;;;;;;;;;;5059409;28;20105;-58
2021/09/29 08:21:31;;;;;;;1.30;0.50;;;;;;;;;;5075342;28;20028;-58
2021/09/29 08:24:16;;;;;;;0.60;0.45;;;;;;;;;;5067230;28;20511;-58
2021/09/29 09:16:09;;;;;;;0.47;0.30;;;;;;;;;;5071328;28;20047;-58
2021/09/29 09:18:45;;;;;;;0.30;0.30;;;;;;;;;;5071056;28;20517;-58
2021/09/29 09:21:15;;;;;;;0.43;0.30;;;;;;;;;;5089338;28;20024;-58
2021/09/29 09:23:42;;;;;;;0.35;0.30;;;;;;;;;;5068457;28;20044;-59
2021/09/29 09:26:13;;;;;;;1.40;0.60;;;;;;;;;;5060006;28;20119;-58
2021/09/29 09:28:39;;;;;;;0.40;0.40;;;;;;;;;;5067300;28;20081;-58
2021/09/29 09:31:09;;;;;;;0.40;0.40;;;;;;;;;;5069548;28;20025;-59
2021/09/29 09:33:45;;;;;;;0.32;0.30;;;;;;;;;;5068617;28;20032;-59
2021/09/29 09:36:11;;;;;;;0.55;0.40;;;;;;;;;;5068179;28;20036;-59
2021/09/29 09:38:42;;;;;;;0.45;0.40;;;;;;;;;;5067047;28;20024;-59
2021/09/29 09:41:08;;;;;;;0.35;0.35;;;;;;;;;;5063807;28;20499;-58
2021/09/29 09:43:34;;;;;;;0.40;0.40;;;;;;;;;;5067908;28;20035;-59
2021/09/29 09:46:02;;;;;;;0.70;0.30;;;;;;;;;;5068297;28;20025;-58
2021/09/29 09:48:29;;;;;;;0.28;0.28;;;;;;;;;;5068293;28;20027;-59
2021/09/29 09:51:07;;;;;;;0.22;0.22;;;;;;;;;;5067376;28;20450;-59
2021/09/29 09:53:34;;;;;;;0.30;0.30;;;;;;;;;;5065780;28;20036;-58
2021/09/29 09:56:11;;;;;;;0.88;0.40;;;;;;;;;;5068821;28;20025;-59
2021/09/29 09:58:44;;;;;;;0.40;0.40;;;;;;;;;;5067235;28;20028;-59
2021/09/29 10:01:15;;;;;;;0.35;0.30;;;;;;;;;;5068148;28;20407;-59
2021/09/29 10:03:42;;;;;;;0.55;0.40;;;;;;;;;;5067081;28;20024;-59
2021/09/29 10:06:08;;;;;;;0.20;0.20;;;;;;;;;;5068325;28;20028;-58
2021/09/29 10:08:35;;;;;;;1.23;0.50;;;;;;;;;;5068266;28;20114;-59
2021/09/29 10:11:12;;;;;;;0.30;0.30;;;;;;;;;;5068338;28;20028;-59
2021/09/29 10:27:17;;;;;;;1.42;0.60;;;;;;;;;;5072788;28;20040;-59
2021/09/29 10:29:52;;;;;;;1.08;0.60;;;;;;;;;;5062949;28;20025;-59
2021/09/29 10:32:32;;;;;;;0.88;0.50;;;;;;;;;;5070230;28;20029;-59
2021/09/29 10:35:07;;;;;;;0.85;0.60;;;;;;;;;;5088336;28;20081;-60
2021/09/29 10:37:54;;;;;;;1.00;0.60;;;;;;;;;;5069801;28;20116;-60
2021/09/29 10:43:05;;;;;;;0.77;0.40;;;;;;;;;;5071141;28;20550;-60
2021/09/29 10:48:30;;;;;;;0.20;0.20;;;;;;;;;;5081554;28;20024;-60
2021/09/29 11:28:39;;;;;;;0.57;0.50;;;;;;;;;;5059398;28;20039;-60
2021/09/29 11:31:25;;;;;;;0.55;0.55;;;;;;;;;;5070048;28;20396;-61
2021/09/29 11:34:10;;;;;;;0.63;0.40;;;;;;;;;;5066105;28;20029;-60
2021/09/29 11:36:58;;;;;;;0.52;0.45;;;;;;;;;;5051393;28;20400;-60
2021/09/29 12:09:54;;;;;;;0.32;0.30;;;;;;;;;;5088961;28;20089;-60
2021/09/29 12:12:24;;;;;;;1.25;0.52;;;;;;;;;;5077317;28;20039;-60
2021/09/29 12:14:51;;;;;;;0.70;0.50;;;;;;;;;;5070387;28;20086;-60
2021/09/29 12:17:21;;;;;;;0.38;0.30;;;;;;;;;;5079257;28;20082;-60
2021/09/29 12:19:53;;;;;;;0.20;0.20;;;;;;;;;;5089115;28;20028;-60
2021/09/29 12:22:20;;;;;;;0.40;0.40;;;;;;;;;;5081250;28;20024;-60
2021/09/29 12:24:50;;;;;;;0.32;0.32;;;;;;;;;;5088128;28;20077;-62
2021/09/29 12:27:24;;;;;;;0.40;0.40;;;;;;;;;;5090150;28;20100;-63
2021/09/29 12:29:53;;;;;;;5.40;4.38;;;;;;;;;;5090261;28;20426;-62
2021/09/29 12:35:21;;;;;;;4.20;3.53;;;;;;;;;;5054556;28;20047;-62
2021/09/29 12:37:55;;;;;;;4.07;3.55;;;;;;;;;;5058946;28;20426;-64
2021/09/29 12:40:21;;;;;;;6.50;4.85;;;;;;;;;;5063663;28;20043;-63
2021/09/29 12:42:55;;;;;;;4.97;3.95;;;;;;;;;;5084394;28;20032;-63
2021/09/29 12:45:25;;;;;;;5.47;3.53;;;;;;;;;;5058884;28;20025;-62
2021/09/29 12:47:51;;;;;;;3.05;2.53;;;;;;;;;;5073578;28;20398;-62
2021/09/29 12:50:23;;;;;;;2.33;2.05;;;;;;;;;;5087756;28;20062;-63
2021/09/29 12:52:56;;;;;;;2.70;1.75;;;;;;;;;;5067388;28;20399;-63
2021/09/29 12:55:30;;;;;;;1.60;1.25;;;;;;;;;;5066731;28;20027;-61
2021/09/29 12:57:57;;;;;;;1.10;1.00;;;;;;;;;;5057959;28;20037;-61
2021/09/29 13:00:23;;;;;;;0.85;0.80;;;;;;;;;;5068532;28;20094;-60
2021/09/29 13:02:49;;;;;;;0.60;0.60;;;;;;;;;;5068229;28;20039;-60
2021/09/29 13:05:15;;;;;;;0.77;0.68;;;;;;;;;;5068031;28;20024;-60
2021/09/29 13:07:42;;;;;;;0.70;0.70;;;;;;;;;;5069159;28;20094;-60
2021/09/29 13:10:08;;;;;;;0.77;0.77;;;;;;;;;;5069435;28;20457;-60
2021/09/29 13:12:34;;;;;;;0.47;0.47;;;;;;;;;;5075593;28;20028;-60
2021/09/29 13:15:00;;;;;;;0.40;0.40;;;;;;;;;;5068859;28;20040;-61
2021/09/29 13:17:28;;;;;;;0.40;0.40;;;;;;;;;;5064679;28;20110;-61
2021/09/29 13:20:01;;;;;;;0.38;0.38;;;;;;;;;;5065052;28;20020;-61
2021/09/29 13:22:28;;;;;;;0.73;0.50;;;;;;;;;;5068031;28;20032;-61
2021/09/29 13:38:24;;;;;;;0.38;0.30;;;;;;;;;;5067958;28;20136;-60
2021/09/29 13:40:50;;;;;;;0.30;0.30;;;;;;;;;;5068199;28;20016;-61
2021/09/29 13:43:17;;;;;;;0.30;0.30;;;;;;;;;;5068381;28;20025;-60
2021/09/29 13:45:43;;;;;;;0.30;0.30;;;;;;;;;;5067346;28;20473;-61
2021/09/29 13:48:09;;;;;;;0.35;0.30;;;;;;;;;;5049190;28;20120;-61
2021/09/29 13:50:35;;;;;;;0.28;0.28;;;;;;;;;;5076215;28;20048;-61
2021/09/29 13:53:01;;;;;;;0.30;0.30;;;;;;;;;;5068676;28;20423;-60
2021/09/29 13:55:30;;;;;;;0.30;0.30;;;;;;;;;;5068186;28;20035;-60
2021/09/29 14:03:31;;;;;;;0.22;0.22;;;;;;;;;;5067598;28;20048;-60
2021/09/29 14:14:21;;;;;;;0.30;0.30;;;;;;;;;;5081323;28;20055;-60
2021/09/29 14:30:35;;;;;;;1.15;0.68;;;;;;;;;;5046720;28;20062;-60
2021/09/29 14:35:27;;;;;;;1.45;0.85;;;;;;;;;;5067186;28;20055;-60
2021/09/29 14:37:54;;;;;;;0.70;0.50;;;;;;;;;;5087730;28;20793;-60
2021/09/29 14:40:22;;;;;;;0.40;0.40;;;;;;;;;;5079866;28;20146;-60
2021/09/29 14:42:49;;;;;;;0.55;0.40;;;;;;;;;;5068024;28;20553;-60
2021/09/29 14:45:18;;;;;;;1.35;0.63;;;;;;;;;;5068222;28;20021;-60
2021/09/29 14:47:44;;;;;;;0.20;0.20;;;;;;;;;;5071549;28;20024;-60
2021/09/29 14:50:10;;;;;;;0.20;0.20;;;;;;;;;;5084426;28;20106;-61
2021/09/29 14:52:36;;;;;;;0.60;0.38;;;;;;;;;;5075366;28;20031;-61
2021/09/29 14:55:03;;;;;;;0.20;0.20;;;;;;;;;;5068032;28;20043;-60
2021/09/29 14:57:29;;;;;;;0.30;0.30;;;;;;;;;;5068529;28;20776;-60
2021/09/29 14:59:55;;;;;;;0.22;0.20;;;;;;;;;;5066868;28;21083;-60
2021/09/29 15:02:21;;;;;;;0.55;0.30;;;;;;;;;;5066530;28;20451;-60
2021/09/29 15:04:47;;;;;;;0.38;0.38;;;;;;;;;;5068385;28;20454;-60
2021/09/29 15:07:13;;;;;;;0.50;0.30;;;;;;;;;;5067316;28;20487;-61
2021/09/29 15:09:39;;;;;;;0.43;0.20;;;;;;;;;;5061180;28;20067;-60
2021/09/29 15:12:07;;;;;;;0.30;0.22;;;;;;;;;;5061174;28;20031;-60
2021/09/29 15:20:05;;;;;;;0.30;0.30;;;;;;;;;;5046803;28;20103;-60
2021/09/29 15:22:44;;;;;;;0.30;0.30;;;;;;;;;;5055359;28;20397;-60
2021/09/29 15:51:53;;;;;;;0.60;0.55;;;;;;;;;;5071485;28;20112;-60
2021/09/29 15:54:36;;;;;;;1.30;0.80;;;;;;;;;;5065130;28;20033;-60
2021/09/29 16:01:58;;;;;;;0.60;0.32;;;;;;;;;;5074948;28;20024;-60
2021/09/29 16:30:26;;;;;;;0.32;0.25;;;;;;;;;;5069675;28;20404;-59
2021/09/29 16:37:45;;;;;;;0.40;0.40;;;;;;;;;;5068276;28;20572;-59
2021/09/29 16:40:11;;;;;;;0.40;0.30;;;;;;;;;;5069306;28;20032;-59
2021/09/29 16:42:38;;;;;;;0.80;0.30;;;;;;;;;;5068536;28;20032;-59
2021/09/29 16:45:07;;;;;;;0.40;0.32;;;;;;;;;;5064858;28;20506;-59
2021/09/29 16:47:35;;;;;;;1.02;0.70;;;;;;;;;;5076232;28;20029;-59
2021/09/29 16:50:01;;;;;;;0.40;0.40;;;;;;;;;;5066445;28;20090;-59
2021/09/29 16:52:38;;;;;;;0.52;0.52;;;;;;;;;;5064309;28;20032;-59
2021/09/29 16:55:06;;;;;;;0.40;0.40;;;;;;;;;;5067773;28;20085;-59
2021/09/29 16:57:37;;;;;;;0.50;0.50;;;;;;;;;;5069495;28;20039;-59
2021/09/29 17:00:10;;;;;;;0.50;0.40;;;;;;;;;;5065050;28;20033;-59
2021/09/29 17:02:36;;;;;;;2.38;0.60;;;;;;;;;;5065567;28;20491;-59
2021/09/29 17:05:03;;;;;;;0.98;0.60;;;;;;;;;;5052526;28;20020;-59
2021/09/29 17:07:29;;;;;;;2.88;1.63;;;;;;;;;;5065174;28;20082;-60
2021/09/29 17:09:55;;;;;;;2.15;1.73;;;;;;;;;;5075982;28;20044;-60
2021/09/29 17:12:23;;;;;;;2.65;2.00;;;;;;;;;;5072008;28;20115;-60
2021/09/29 17:14:49;;;;;;;2.95;1.58;;;;;;;;;;5048322;28;20082;-60
2021/09/29 17:17:16;;;;;;;2.15;1.60;;;;;;;;;;5076126;28;20038;-60
2021/09/29 17:19:42;;;;;;;1.52;1.42;;;;;;;;;;5066751;28;21046;-60
2021/09/29 17:22:09;;;;;;;1.77;1.23;;;;;;;;;;5064664;28;20622;-59
2021/09/29 17:24:41;;;;;;;1.60;1.02;;;;;;;;;;5067730;28;20407;-59
2021/09/29 17:27:11;;;;;;;1.35;1.10;;;;;;;;;;5084772;28;20107;-59
2021/09/29 17:29:37;;;;;;;0.80;0.70;;;;;;;;;;5079532;28;20024;-58
2021/09/29 17:32:06;;;;;;;0.70;0.70;;;;;;;;;;5052399;28;20522;-60
2021/09/29 17:53:10;;;;;;;0.28;0.28;;;;;;;;;;5059801;28;20070;-59
2021/09/29 17:55:38;;;;;;;0.75;0.50;;;;;;;;;;5066260;28;20062;-59
2021/09/29 17:58:04;;;;;;;0.43;0.30;;;;;;;;;;5066201;28;20515;-59
2021/09/29 18:00:34;;;;;;;0.35;0.35;;;;;;;;;;5064475;28;20024;-59
2021/09/29 18:03:07;;;;;;;0.30;0.30;;;;;;;;;;5063689;28;20453;-60
2021/09/29 18:05:38;;;;;;;0.50;0.38;;;;;;;;;;5064291;28;20032;-60
2021/09/29 18:08:06;;;;;;;0.35;0.30;;;;;;;;;;5064551;28;20068;-60
2021/09/29 18:10:32;;;;;;;0.47;0.47;;;;;;;;;;5062671;28;20052;-60
2021/09/29 18:12:59;;;;;;;1.35;0.40;;;;;;;;;;5064327;28;20024;-61
2021/09/29 18:15:26;;;;;;;0.57;0.20;;;;;;;;;;5068478;28;20032;-61
2021/09/29 18:17:52;;;;;;;0.55;0.38;;;;;;;;;;5063111;28;20047;-61
2021/09/29 18:20:18;;;;;;;0.30;0.30;;;;;;;;;;5063058;28;20399;-60
2021/09/29 18:22:45;;;;;;;0.40;0.30;;;;;;;;;;5062444;28;20503;-61
2021/09/29 18:25:11;;;;;;;0.55;0.32;;;;;;;;;;5063269;28;20175;-61
2021/09/29 18:27:38;;;;;;;0.20;0.20;;;;;;;;;;5063100;28;20082;-61
2021/09/29 18:30:05;;;;;;;0.85;0.45;;;;;;;;;;5062804;28;20032;-61
2021/09/29 18:32:32;;;;;;;0.30;0.30;;;;;;;;;;5071922;28;20499;-61
2021/09/29 18:34:58;;;;;;;0.80;0.30;;;;;;;;;;5072292;28;20036;-61
2021/09/29 18:37:26;;;;;;;0.45;0.20;;;;;;;;;;5067704;28;20028;-61
2021/09/29 18:39:55;;;;;;;0.47;0.40;;;;;;;;;;5063744;28;20033;-61
2021/09/29 18:42:22;;;;;;;0.50;0.30;;;;;;;;;;5068198;28;20036;-61
2021/09/29 18:44:49;;;;;;;0.30;0.30;;;;;;;;;;5065818;28;20620;-61
2021/09/29 18:47:16;;;;;;;0.30;0.30;;;;;;;;;;5064009;28;20021;-60
2021/09/29 18:49:48;;;;;;;0.30;0.30;;;;;;;;;;5062969;28;20028;-60
2021/09/29 18:52:17;;;;;;;0.50;0.40;;;;;;;;;;5084049;28;20020;-61
2021/09/29 19:08:20;;;;;;;;;;;;;;;;;;5081336;28;20035;-61
2021/09/29 19:10:47;;;;;;;0.30;0.30;;;;;;;;;;5064134;28;19912;-60
2021/09/29 19:13:14;;;;;;;0.63;0.47;;;;;;;;;;5063766;28;20474;-61
2021/09/29 19:15:40;;;;;;;0.57;0.35;;;;;;;;;;5063003;28;20043;-59
2021/09/29 19:18:08;;;;;;;0.80;0.43;;;;;;;;;;5063883;28;20616;-60
2021/09/29 19:20:35;;;;;;;0.35;0.25;;;;;;;;;;5033905;28;20041;-59
2021/09/29 19:23:01;;;;;;;0.75;0.40;;;;;;;;;;5057425;28;20025;-59
2021/09/29 19:25:28;;;;;;;0.50;0.30;;;;;;;;;;5062631;28;20040;-60
2021/09/29 19:28:01;;;;;;;0.73;0.30;;;;;;;;;;5068770;28;20028;-60
2021/09/29 19:30:27;;;;;;;0.80;0.38;;;;;;;;;;5065057;28;20025;-60
2021/09/29 19:32:56;;;;;;;0.32;0.32;;;;;;;;;;5054846;28;20152;-60